Time;durP1;ratioP1;P1;durP2;ratioP2;P2;SDS_P1;SDS_P2;PMS_P1;PMS_P2;Temp;Humidity;BMP_temperature;BMP_pressure;BME280_temperature;BME280_humidity;BME280_pressure;Samples;Min_cycle;Max_cycle;Signal;HPM_P1;HPM_P2
2021/10/20 00:01:36;;;;;;;20.85;15.85;;;15.80;99.90;;;;;;5003730;28;20481;-57
2021/10/20 00:04:06;;;;;;;21.73;16.02;;;15.80;99.90;;;;;;5004704;28;20101;-55
2021/10/20 00:06:32;;;;;;;20.23;15.23;;;15.80;99.90;;;;;;5004929;28;20393;-57
2021/10/20 00:08:58;;;;;;;23.05;16.02;;;15.80;99.90;;;;;;5004822;28;20104;-58
2021/10/20 00:11:24;;;;;;;19.52;15.23;;;15.80;99.90;;;;;;5006484;28;20144;-57
2021/10/20 00:13:50;;;;;;;16.75;14.95;;;15.80;99.90;;;;;;5008367;28;20042;-56
2021/10/20 00:16:18;;;;;;;20.38;14.75;;;15.80;99.90;;;;;;5007062;28;20034;-55
2021/10/20 00:18:49;;;;;;;20.85;15.32;;;15.80;99.90;;;;;;5007855;28;20030;-55
2021/10/20 00:21:20;;;;;;;19.40;14.40;;;15.80;99.90;;;;;;5008326;28;20030;-57
2021/10/20 00:23:46;;;;;;;20.15;15.50;;;15.80;99.90;;;;;;5008091;28;20058;-50
2021/10/20 00:26:12;;;;;;;19.73;15.43;;;15.80;99.90;;;;;;5024666;23;20038;-52
2021/10/20 00:28:37;;;;;;;23.23;16.48;;;15.70;99.90;;;;;;4962630;28;20113;-50
2021/10/20 00:31:03;;;;;;;19.20;14.75;;;15.70;99.90;;;;;;4968597;28;20585;-50
2021/10/20 00:33:28;;;;;;;17.60;15.15;;;15.60;99.90;;;;;;4981213;28;20058;-52
2021/10/20 00:35:54;;;;;;;18.88;15.73;;;15.60;99.90;;;;;;4987852;28;20026;-50
2021/10/20 00:38:20;;;;;;;23.60;15.57;;;15.60;99.90;;;;;;4971763;28;20042;-50
2021/10/20 00:40:45;;;;;;;19.40;15.90;;;15.50;99.90;;;;;;4969071;28;20084;-50
2021/10/20 00:43:11;;;;;;;21.45;16.10;;;15.50;99.90;;;;;;4968531;28;20396;-50
2021/10/20 00:45:37;;;;;;;20.05;15.40;;;15.50;99.90;;;;;;4953263;28;20127;-54
2021/10/20 00:48:03;;;;;;;19.90;15.02;;;15.50;99.90;;;;;;4968764;28;20070;-51
2021/10/20 00:50:28;;;;;;;18.20;15.10;;;15.50;99.90;;;;;;4968763;28;20039;-51
2021/10/20 00:52:54;;;;;;;20.33;15.93;;;15.50;99.90;;;;;;4968157;28;20034;-50
2021/10/20 00:55:19;;;;;;;20.67;16.38;;;15.50;99.90;;;;;;4950185;28;20578;-51
2021/10/20 00:57:46;;;;;;;18.38;16.05;;;15.50;99.90;;;;;;4966904;28;20043;-52
2021/10/20 01:00:15;;;;;;;18.48;15.27;;;15.50;99.90;;;;;;4965932;28;20023;-50
2021/10/20 01:02:41;;;;;;;17.90;14.30;;;15.40;99.90;;;;;;4954249;28;20035;-52
2021/10/20 01:05:08;;;;;;;22.33;15.88;;;15.40;99.90;;;;;;4951501;28;20096;-51
2021/10/20 01:07:34;;;;;;;21.98;15.27;;;15.40;99.90;;;;;;4968703;28;20026;-50
2021/10/20 01:09:59;;;;;;;17.58;14.07;;;15.50;99.90;;;;;;4968478;28;20080;-51
2021/10/20 01:12:25;;;;;;;18.75;14.30;;;15.40;99.90;;;;;;4968063;28;20038;-51
2021/10/20 01:14:51;;;;;;;15.80;13.32;;;15.40;99.90;;;;;;4968692;28;20230;-51
2021/10/20 01:17:17;;;;;;;16.45;14.02;;;15.40;99.90;;;;;;4968373;28;20035;-50
2021/10/20 01:19:44;;;;;;;15.65;13.15;;;15.40;99.90;;;;;;4967967;28;20038;-52
2021/10/20 01:22:10;;;;;;;18.00;13.77;;;15.40;99.90;;;;;;4967929;28;20031;-53
2021/10/20 01:24:36;;;;;;;17.73;13.40;;;15.30;99.90;;;;;;4968566;28;20031;-51
2021/10/20 01:27:03;;;;;;;24.75;13.88;;;15.30;99.90;;;;;;4968353;28;20046;-52
2021/10/20 01:29:29;;;;;;;17.70;13.70;;;15.20;99.90;;;;;;4968305;28;20096;-51
2021/10/20 01:32:00;;;;;;;16.00;13.60;;;15.20;99.90;;;;;;4966894;28;20031;-53
2021/10/20 01:34:26;;;;;;;17.17;12.88;;;15.20;99.90;;;;;;4968972;28;20041;-50
2021/10/20 01:36:53;;;;;;;18.75;12.95;;;15.20;99.90;;;;;;4968945;28;20109;-51
2021/10/20 01:39:20;;;;;;;17.13;13.32;;;15.20;99.90;;;;;;4967841;28;20027;-51
2021/10/20 01:41:47;;;;;;;18.67;12.93;;;15.20;99.90;;;;;;4968653;28;20023;-51
2021/10/20 01:44:13;;;;;;;17.88;12.70;;;15.20;99.90;;;;;;4967904;28;20088;-52
2021/10/20 01:46:39;;;;;;;16.65;12.88;;;15.20;99.90;;;;;;4968092;28;20108;-51
2021/10/20 01:49:05;;;;;;;16.15;11.98;;;15.10;99.90;;;;;;4967997;28;20070;-51
2021/10/20 01:51:30;;;;;;;16.15;12.90;;;15.10;99.90;;;;;;4967216;28;20129;-50
2021/10/20 01:53:56;;;;;;;15.63;11.65;;;15.20;99.90;;;;;;4968325;28;20543;-50
2021/10/20 01:56:22;;;;;;;16.13;11.98;;;15.10;99.90;;;;;;4958764;28;20053;-50
2021/10/20 01:58:48;;;;;;;16.23;13.18;;;15.10;99.90;;;;;;4967675;28;20417;-50
2021/10/20 02:01:13;;;;;;;14.95;12.65;;;15.10;99.90;;;;;;4968454;28;20057;-53
2021/10/20 02:03:40;;;;;;;16.27;12.00;;;15.00;99.90;;;;;;4968395;28;20487;-50
2021/10/20 02:06:09;;;;;;;15.13;12.05;;;15.00;99.90;;;;;;4968214;28;20031;-50
2021/10/20 02:08:35;;;;;;;15.95;12.30;;;15.00;99.90;;;;;;4967537;28;20043;-50
2021/10/20 02:11:01;;;;;;;13.30;11.77;;;15.00;99.90;;;;;;4967913;28;20092;-51
2021/10/20 02:13:27;;;;;;;15.25;11.52;;;14.90;99.90;;;;;;4967767;28;20506;-52
2021/10/20 02:15:53;;;;;;;13.18;11.82;;;14.90;99.90;;;;;;4967910;28;20057;-52
2021/10/20 02:18:19;;;;;;;15.02;10.80;;;14.90;99.90;;;;;;4967539;28;20035;-52
2021/10/20 02:20:44;;;;;;;14.65;11.07;;;14.90;99.90;;;;;;4967607;28;20030;-51
2021/10/20 02:23:11;;;;;;;13.73;11.00;;;14.80;99.90;;;;;;4967480;28;20153;-53
2021/10/20 02:25:36;;;;;;;14.80;10.98;;;14.80;99.90;;;;;;4950612;28;20038;-50
2021/10/20 02:28:02;;;;;;;13.95;11.35;;;14.80;99.90;;;;;;4967615;28;20026;-52
2021/10/20 02:30:27;;;;;;;14.38;11.55;;;14.80;99.90;;;;;;4961246;28;20037;-52
2021/10/20 02:32:53;;;;;;;15.65;11.35;;;14.70;99.90;;;;;;4968851;28;20026;-53
2021/10/20 02:35:20;;;;;;;14.88;11.32;;;14.70;99.90;;;;;;4966702;28;20031;-51
2021/10/20 02:37:45;;;;;;;15.82;11.02;;;14.80;99.90;;;;;;4966999;28;20550;-52
2021/10/20 02:40:13;;;;;;;12.77;10.68;;;14.80;99.90;;;;;;4967305;28;20102;-50
2021/10/20 02:42:40;;;;;;;14.60;10.93;;;14.80;99.90;;;;;;4967472;28;20027;-51
2021/10/20 02:45:09;;;;;;;14.50;9.77;;;14.70;99.90;;;;;;4966282;28;20018;-51
2021/10/20 02:47:34;;;;;;;15.43;10.98;;;14.70;99.90;;;;;;4960518;28;20014;-51
2021/10/20 02:50:00;;;;;;;14.90;10.05;;;14.70;99.90;;;;;;4966487;28;20037;-51
2021/10/20 02:52:26;;;;;;;13.00;10.38;;;14.70;99.90;;;;;;4963539;28;20062;-51
2021/10/20 02:54:51;;;;;;;13.98;9.82;;;14.70;99.90;;;;;;4967191;28;20023;-54
2021/10/20 02:57:18;;;;;;;14.35;10.38;;;14.70;99.90;;;;;;4965428;28;20039;-51
2021/10/20 02:59:45;;;;;;;11.98;9.73;;;14.70;99.90;;;;;;4960866;28;20084;-52
2021/10/20 03:02:10;;;;;;;12.60;10.32;;;14.70;99.90;;;;;;4967080;28;20049;-51
2021/10/20 03:04:39;;;;;;;13.50;9.82;;;14.70;99.90;;;;;;4967788;28;20031;-52
2021/10/20 03:07:04;;;;;;;12.95;10.02;;;14.70;99.90;;;;;;4967273;28;20069;-51
2021/10/20 03:09:30;;;;;;;11.07;9.20;;;14.80;99.90;;;;;;4967168;28;20023;-54
2021/10/20 03:11:55;;;;;;;11.82;9.73;;;14.70;99.90;;;;;;4966601;28;20548;-53
2021/10/20 03:14:21;;;;;;;11.52;9.65;;;14.80;99.90;;;;;;4967277;28;20035;-51
2021/10/20 03:16:46;;;;;;;10.27;8.50;;;14.90;99.90;;;;;;4966720;28;20110;-52
2021/10/20 03:19:12;;;;;;;12.10;9.52;;;14.90;99.90;;;;;;4966198;28;20543;-52
2021/10/20 03:21:38;;;;;;;11.10;8.55;;;14.90;99.90;;;;;;4967206;28;20034;-52
2021/10/20 03:24:04;;;;;;;11.40;8.68;;;14.90;99.90;;;;;;4966758;28;20100;-51
2021/10/20 03:26:29;;;;;;;12.32;9.35;;;14.90;99.90;;;;;;4966819;28;20137;-52
2021/10/20 03:28:55;;;;;;;11.07;8.10;;;14.90;99.90;;;;;;4966736;28;20605;-50
2021/10/20 03:31:20;;;;;;;9.05;7.97;;;14.90;99.90;;;;;;4966540;28;20089;-53
2021/10/20 03:33:46;;;;;;;12.02;7.82;;;14.90;99.90;;;;;;4968667;28;20072;-52
2021/10/20 03:36:12;;;;;;;9.98;8.95;;;14.90;99.90;;;;;;4966266;28;20042;-51
2021/10/20 03:38:37;;;;;;;11.43;7.40;;;14.90;99.90;;;;;;4966697;28;20042;-51
2021/10/20 03:41:03;;;;;;;9.70;7.03;;;14.90;99.90;;;;;;4966875;28;20027;-51
2021/10/20 03:43:29;;;;;;;10.32;7.90;;;14.90;99.90;;;;;;4966853;28;20058;-51
2021/10/20 03:45:55;;;;;;;9.15;7.72;;;14.90;99.90;;;;;;4964999;28;20045;-51
2021/10/20 03:48:20;;;;;;;13.20;8.55;;;14.90;99.90;;;;;;4966417;28;20106;-55
2021/10/20 03:50:46;;;;;;;11.25;7.65;;;14.90;99.90;;;;;;4966501;28;20037;-52
2021/10/20 03:53:11;;;;;;;7.25;6.57;;;14.80;99.90;;;;;;4966677;28;20027;-51
2021/10/20 03:55:37;;;;;;;8.00;7.00;;;14.80;99.90;;;;;;4965349;28;20062;-51
2021/10/20 03:58:04;;;;;;;9.13;6.93;;;14.70;99.90;;;;;;4966100;28;20108;-51
2021/10/20 04:00:30;;;;;;;8.30;7.28;;;14.70;99.90;;;;;;4966006;28;20063;-52
2021/10/20 04:02:56;;;;;;;9.10;6.13;;;14.80;99.90;;;;;;4965938;28;20027;-51
2021/10/20 04:05:21;;;;;;;9.10;7.60;;;14.70;99.90;;;;;;4966073;28;20034;-52
2021/10/20 04:07:49;;;;;;;8.05;6.70;;;14.70;99.90;;;;;;4966554;28;20097;-51
2021/10/20 04:10:21;;;;;;;8.90;6.45;;;14.70;99.90;;;;;;4966349;28;20115;-52
2021/10/20 04:12:47;;;;;;;7.05;6.07;;;14.70;99.90;;;;;;4966220;28;20027;-54
2021/10/20 04:15:14;;;;;;;11.43;7.20;;;14.70;99.90;;;;;;4965087;28;20042;-54
2021/10/20 04:17:40;;;;;;;7.72;5.72;;;14.60;99.90;;;;;;4966204;28;20027;-51
2021/10/20 04:20:11;;;;;;;8.27;6.53;;;14.60;99.90;;;;;;4965830;28;20027;-53
2021/10/20 04:22:37;;;;;;;8.60;6.40;;;14.60;99.90;;;;;;4965155;28;20046;-52
2021/10/20 04:25:04;;;;;;;7.18;5.93;;;14.50;99.90;;;;;;4966110;28;20038;-53
2021/10/20 04:27:30;;;;;;;6.68;5.85;;;14.50;99.90;;;;;;4966027;28;20039;-51
2021/10/20 04:29:57;;;;;;;8.77;5.43;;;14.50;99.90;;;;;;4965970;28;20031;-52
2021/10/20 04:32:22;;;;;;;6.85;6.15;;;14.50;99.90;;;;;;4968844;28;20037;-51
2021/10/20 04:34:48;;;;;;;7.63;5.80;;;14.40;99.90;;;;;;4972536;28;20026;-51
2021/10/20 04:37:14;;;;;;;9.68;5.95;;;14.40;99.90;;;;;;4964290;28;20088;-55
2021/10/20 04:39:39;;;;;;;7.28;6.10;;;14.40;99.90;;;;;;4965820;28;20030;-53
2021/10/20 04:42:05;;;;;;;7.88;6.55;;;14.30;99.90;;;;;;4965971;28;20102;-51
2021/10/20 04:44:30;;;;;;;7.38;5.70;;;14.30;99.90;;;;;;4965523;28;20023;-53
2021/10/20 04:46:56;;;;;;;7.63;6.25;;;14.30;99.90;;;;;;4965751;28;20494;-50
2021/10/20 04:49:21;;;;;;;7.68;6.22;;;14.30;99.90;;;;;;4964988;28;20035;-52
2021/10/20 04:51:47;;;;;;;8.02;5.97;;;14.30;99.90;;;;;;4965931;28;20035;-52
2021/10/20 04:54:12;;;;;;;8.68;5.88;;;14.30;99.90;;;;;;4965815;28;20109;-51
2021/10/20 04:56:38;;;;;;;10.00;5.88;;;14.30;99.90;;;;;;4965462;28;20401;-52
2021/10/20 04:59:04;;;;;;;9.57;6.95;;;14.30;99.90;;;;;;4968620;28;20038;-50
2021/10/20 05:01:29;;;;;;;8.05;6.03;;;14.30;99.90;;;;;;4969540;28;20098;-51
2021/10/20 05:03:55;;;;;;;7.25;5.95;;;14.20;99.90;;;;;;4968613;28;20064;-51
2021/10/20 05:06:20;;;;;;;7.85;5.80;;;14.20;99.90;;;;;;4969409;28;20027;-52
2021/10/20 05:08:46;;;;;;;6.63;5.95;;;14.30;99.90;;;;;;4968995;28;20050;-52
2021/10/20 05:11:11;;;;;;;7.00;5.82;;;14.20;99.90;;;;;;4968561;28;20047;-53
2021/10/20 05:13:37;;;;;;;7.38;5.82;;;14.20;99.90;;;;;;4967275;28;20057;-55
2021/10/20 05:16:02;;;;;;;10.60;6.55;;;14.20;99.90;;;;;;4967143;28;20031;-51
2021/10/20 05:18:28;;;;;;;8.07;6.25;;;14.30;99.90;;;;;;4967450;28;20035;-50
2021/10/20 05:20:54;;;;;;;8.98;6.45;;;14.30;99.90;;;;;;4968699;28;20023;-51
2021/10/20 05:23:20;;;;;;;9.60;6.00;;;14.30;99.90;;;;;;4968499;28;20082;-52
2021/10/20 05:25:46;;;;;;;10.93;6.03;;;14.30;99.90;;;;;;4968274;28;20027;-51
2021/10/20 05:28:12;;;;;;;5.82;5.32;;;14.20;99.90;;;;;;4968092;28;20034;-50
2021/10/20 05:30:37;;;;;;;6.75;5.40;;;14.20;99.90;;;;;;4968108;28;20039;-50
2021/10/20 05:33:03;;;;;;;7.93;6.63;;;14.10;99.90;;;;;;4969851;28;20034;-50
2021/10/20 05:35:29;;;;;;;8.45;5.63;;;14.10;99.90;;;;;;4968314;28;20046;-51
2021/10/20 05:37:54;;;;;;;6.95;5.90;;;14.10;99.90;;;;;;4968373;28;20169;-51
2021/10/20 05:40:22;;;;;;;9.10;6.13;;;14.10;99.90;;;;;;4968429;28;20442;-50
2021/10/20 05:42:48;;;;;;;9.43;6.38;;;14.10;99.90;;;;;;4968457;28;20034;-54
2021/10/20 05:45:14;;;;;;;10.02;6.03;;;14.10;99.90;;;;;;4966936;28;20058;-51
2021/10/20 05:47:40;;;;;;;7.18;5.43;;;14.10;99.90;;;;;;4967733;28;20638;-51
2021/10/20 05:50:06;;;;;;;7.05;6.35;;;14.10;99.90;;;;;;4967868;28;20063;-53
2021/10/20 05:52:32;;;;;;;6.95;6.25;;;14.10;99.90;;;;;;4967593;28;20033;-53
2021/10/20 05:54:58;;;;;;;7.18;5.90;;;14.10;99.90;;;;;;4968309;28;20422;-48
2021/10/20 05:57:26;;;;;;;7.30;5.65;;;14.10;99.90;;;;;;4966800;28;20041;-49
2021/10/20 05:59:52;;;;;;;7.75;6.15;;;14.10;99.90;;;;;;4967425;28;20525;-51
2021/10/20 06:02:17;;;;;;;7.82;6.38;;;14.10;99.90;;;;;;4966315;28;20038;-51
2021/10/20 06:04:43;;;;;;;8.02;6.10;;;14.10;99.90;;;;;;4966494;28;20022;-51
2021/10/20 06:07:09;;;;;;;6.97;5.78;;;14.10;99.90;;;;;;4967904;28;20030;-51
2021/10/20 06:09:35;;;;;;;5.90;5.25;;;14.10;99.90;;;;;;4967512;28;20511;-50
2021/10/20 06:12:01;;;;;;;6.28;5.18;;;14.10;99.90;;;;;;4956997;28;20027;-51
2021/10/20 06:14:28;;;;;;;7.95;5.80;;;14.10;99.90;;;;;;4963324;28;20125;-51
2021/10/20 06:16:57;;;;;;;8.80;6.00;;;14.10;99.90;;;;;;4966534;28;20448;-50
2021/10/20 06:19:22;;;;;;;7.68;5.40;;;14.10;99.90;;;;;;4967521;28;20023;-51
2021/10/20 06:21:48;;;;;;;7.55;5.80;;;14.10;99.90;;;;;;4967830;28;20046;-51
2021/10/20 06:24:14;;;;;;;7.38;6.25;;;14.10;99.90;;;;;;4967824;28;20034;-50
2021/10/20 06:26:40;;;;;;;6.53;5.00;;;14.10;99.90;;;;;;4996868;23;20065;-56
2021/10/20 06:29:06;;;;;;;8.13;5.32;;;14.10;99.90;;;;;;5064242;28;20049;-52
2021/10/20 06:31:33;;;;;;;8.68;6.32;;;14.10;99.90;;;;;;5062758;28;20020;-51
2021/10/20 06:33:58;;;;;;;9.32;5.10;;;14.10;99.90;;;;;;5065104;28;20037;-53
2021/10/20 06:36:32;;;;;;;6.47;5.80;;;14.20;99.90;;;;;;5048865;28;20033;-49
2021/10/20 06:39:00;;;;;;;7.47;5.72;;;14.10;99.90;;;;;;5029922;28;20521;-53
2021/10/20 06:41:26;;;;;;;7.13;5.75;;;14.10;99.90;;;;;;5028613;28;20552;-55
2021/10/20 06:43:52;;;;;;;7.47;6.03;;;14.10;99.90;;;;;;5047937;28;20632;-52
2021/10/20 06:46:17;;;;;;;7.68;6.05;;;14.10;99.90;;;;;;5047109;28;20048;-56
2021/10/20 06:48:43;;;;;;;7.13;6.03;;;14.20;99.90;;;;;;5049399;28;20029;-52
2021/10/20 06:51:09;;;;;;;6.50;5.60;;;14.20;99.90;;;;;;5031399;28;20516;-53
2021/10/20 06:53:35;;;;;;;12.98;6.70;;;14.20;99.90;;;;;;5047143;28;20044;-52
2021/10/20 06:56:02;;;;;;;6.88;5.18;;;14.20;99.90;;;;;;5032468;28;20025;-54
2021/10/20 06:58:28;;;;;;;6.25;5.00;;;14.20;99.90;;;;;;5030392;28;20042;-55
2021/10/20 07:00:53;;;;;;;9.38;6.07;;;14.20;99.90;;;;;;5037596;28;20017;-53
2021/10/20 07:03:19;;;;;;;9.45;5.88;;;14.30;99.90;;;;;;5048763;28;20503;-55
2021/10/20 07:05:44;;;;;;;7.43;6.00;;;14.20;99.90;;;;;;5048582;28;20370;-53
2021/10/20 07:08:10;;;;;;;7.15;5.53;;;14.30;99.90;;;;;;5048179;28;20044;-57
2021/10/20 07:10:39;;;;;;;7.57;6.15;;;14.30;99.90;;;;;;5044189;28;20029;-55
2021/10/20 07:13:05;;;;;;;8.07;5.43;;;14.30;99.90;;;;;;5028333;28;20021;-55
2021/10/20 07:15:31;;;;;;;7.72;5.70;;;14.30;99.90;;;;;;5028387;28;20029;-51
2021/10/20 07:17:56;;;;;;;9.00;5.18;;;14.40;99.90;;;;;;5028263;28;20029;-52
2021/10/20 07:20:22;;;;;;;9.80;6.30;;;14.40;99.90;;;;;;5043103;28;20459;-49
2021/10/20 07:22:48;;;;;;;5.85;5.07;;;14.40;99.90;;;;;;5048448;28;20032;-52
2021/10/20 07:25:15;;;;;;;6.60;5.18;;;14.40;99.90;;;;;;5048033;28;20021;-53
2021/10/20 07:27:41;;;;;;;7.10;5.60;;;14.40;99.90;;;;;;5048006;28;20063;-49
2021/10/20 07:30:08;;;;;;;6.97;4.80;;;14.50;99.90;;;;;;5048188;28;20071;-52
2021/10/20 07:32:34;;;;;;;8.15;5.93;;;14.50;99.90;;;;;;5052700;28;20496;-49
2021/10/20 07:34:59;;;;;;;7.35;5.25;;;14.50;99.90;;;;;;5068952;28;20094;-50
2021/10/20 07:37:25;;;;;;;8.15;5.57;;;14.50;99.90;;;;;;5067845;28;20039;-50
2021/10/20 07:39:50;;;;;;;7.07;6.03;;;14.50;99.90;;;;;;5068755;28;20106;-52
2021/10/20 07:42:16;;;;;;;8.88;6.55;;;14.60;99.90;;;;;;5068361;28;20024;-52
2021/10/20 07:44:43;;;;;;;7.60;5.78;;;14.60;99.90;;;;;;5068358;28;20024;-55
2021/10/20 07:47:08;;;;;;;10.35;6.22;;;14.60;99.90;;;;;;5066877;28;20020;-55
2021/10/20 07:49:34;;;;;;;11.07;6.40;;;14.60;99.90;;;;;;5068008;28;20047;-50
2021/10/20 07:52:00;;;;;;;8.05;5.93;;;14.70;99.90;;;;;;5056810;28;20022;-50
2021/10/20 07:54:26;;;;;;;7.78;6.22;;;14.70;99.90;;;;;;5028737;28;20061;-49
2021/10/20 07:56:52;;;;;;;9.40;6.57;;;14.70;99.90;;;;;;5031960;28;20503;-54
2021/10/20 07:59:19;;;;;;;8.68;6.55;;;14.80;99.90;;;;;;5047252;28;20037;-50
2021/10/20 08:01:45;;;;;;;7.95;6.50;;;14.80;99.90;;;;;;5047290;28;20082;-51
2021/10/20 08:04:11;;;;;;;7.32;6.05;;;14.80;99.90;;;;;;5048177;28;20108;-51
2021/10/20 08:06:36;;;;;;;7.40;6.13;;;14.90;99.90;;;;;;5047842;28;20036;-50
2021/10/20 08:09:02;;;;;;;10.25;7.38;;;14.90;99.90;;;;;;5031777;28;20052;-52
2021/10/20 08:11:27;;;;;;;9.82;6.88;;;15.00;99.90;;;;;;5028313;28;20041;-55
2021/10/20 08:13:53;;;;;;;9.45;6.78;;;15.00;99.90;;;;;;5026468;28;20100;-49
2021/10/20 08:16:19;;;;;;;8.25;7.05;;;15.00;99.90;;;;;;5028461;28;20482;-49
2021/10/20 08:18:44;;;;;;;7.57;6.32;;;15.00;99.90;;;;;;5041005;28;20098;-51
2021/10/20 08:21:10;;;;;;;9.57;7.50;;;15.00;99.90;;;;;;5047825;28;20029;-53
2021/10/20 08:23:36;;;;;;;9.02;7.85;;;15.10;99.90;;;;;;5047312;28;20036;-53
2021/10/20 08:26:02;;;;;;;9.05;6.93;;;15.10;99.90;;;;;;5047642;28;20029;-54
2021/10/20 08:28:27;;;;;;;9.25;6.68;;;15.10;99.90;;;;;;5032334;28;20646;-51
2021/10/20 08:30:53;;;;;;;9.30;7.10;;;15.20;99.90;;;;;;5027514;28;20025;-53
2021/10/20 08:33:19;;;;;;;10.13;7.68;;;15.20;99.90;;;;;;5050925;28;20036;-52
2021/10/20 08:35:45;;;;;;;9.73;7.25;;;15.20;99.90;;;;;;5070500;28;20036;-54
2021/10/20 08:38:11;;;;;;;8.68;6.75;;;15.30;99.90;;;;;;5055847;28;20044;-54
2021/10/20 08:40:41;;;;;;;9.73;7.88;;;15.30;99.90;;;;;;5050655;28;20461;-50
2021/10/20 08:43:07;;;;;;;9.35;7.45;;;15.40;99.90;;;;;;5050209;28;20091;-55
2021/10/20 08:45:33;;;;;;;9.07;7.43;;;15.40;99.90;;;;;;5051368;28;20048;-53
2021/10/20 08:47:58;;;;;;;9.43;7.10;;;15.50;99.90;;;;;;5050735;28;20206;-51
2021/10/20 08:50:31;;;;;;;10.43;8.32;;;15.50;99.90;;;;;;5051073;28;20032;-54
2021/10/20 08:52:57;;;;;;;12.73;7.78;;;15.60;99.90;;;;;;5050935;28;20028;-50
2021/10/20 08:55:25;;;;;;;12.00;8.57;;;15.60;99.90;;;;;;5051016;28;20075;-50
2021/10/20 08:57:52;;;;;;;9.80;7.40;;;15.60;99.90;;;;;;5049099;28;20400;-54
2021/10/20 09:00:19;;;;;;;10.80;7.93;;;15.70;99.90;;;;;;5050278;28;20036;-52
2021/10/20 09:02:47;;;;;;;9.88;7.90;;;15.70;99.90;;;;;;5048754;28;20095;-51
2021/10/20 09:05:15;;;;;;;9.10;7.57;;;15.70;99.90;;;;;;5050145;28;20040;-53
2021/10/20 09:07:45;;;;;;;12.57;7.75;;;15.70;99.90;;;;;;5042473;28;20025;-49
2021/10/20 09:10:12;;;;;;;12.88;7.47;;;15.70;99.90;;;;;;5036388;28;20025;-53
2021/10/20 09:12:40;;;;;;;8.30;7.18;;;15.70;99.90;;;;;;5048459;28;20040;-51
2021/10/20 09:15:10;;;;;;;8.63;7.47;;;15.70;99.90;;;;;;5051287;28;20017;-52
2021/10/20 09:17:47;;;;;;;9.90;8.13;;;15.80;99.90;;;;;;5041572;28;20116;-54
2021/10/20 09:20:29;;;;;;;13.32;8.55;;;15.90;99.90;;;;;;5030625;28;20508;-54
2021/10/20 09:23:00;;;;;;;10.60;7.65;;;15.90;99.90;;;;;;5048126;28;20025;-54
2021/10/20 09:25:33;;;;;;;11.63;8.18;;;15.90;99.90;;;;;;5050035;28;20053;-49
2021/10/20 09:27:59;;;;;;;10.75;7.55;;;16.00;99.90;;;;;;5031126;28;20136;-51
2021/10/20 09:30:27;;;;;;;11.32;8.35;;;16.10;99.90;;;;;;5030892;28;20045;-54
2021/10/20 09:32:57;;;;;;;10.30;8.63;;;16.20;99.90;;;;;;5053056;28;20108;-51
2021/10/20 09:35:23;;;;;;;10.27;7.90;;;16.30;99.90;;;;;;5061950;28;20482;-55
2021/10/20 09:37:54;;;;;;;10.35;8.63;;;16.40;99.90;;;;;;5031955;28;20038;-53
2021/10/20 09:40:20;;;;;;;8.88;7.95;;;16.40;99.90;;;;;;5030154;28;20018;-54
2021/10/20 09:42:48;;;;;;;9.60;8.20;;;16.40;99.90;;;;;;5034032;28;20044;-54
2021/10/20 09:45:18;;;;;;;10.23;8.38;;;16.40;99.90;;;;;;5039077;28;20480;-52
2021/10/20 09:47:44;;;;;;;11.95;8.60;;;16.30;99.90;;;;;;5050079;28;20174;-54
2021/10/20 09:50:10;;;;;;;11.52;8.60;;;16.30;99.90;;;;;;5049723;28;20099;-52
2021/10/20 09:52:47;;;;;;;9.85;7.90;;;16.20;99.90;;;;;;5049658;28;20114;-50
2021/10/20 09:55:15;;;;;;;8.35;7.25;;;16.10;99.90;;;;;;5045481;28;20116;-53
2021/10/20 09:57:41;;;;;;;10.43;6.93;;;16.10;99.90;;;;;;5035631;28;20025;-49
2021/10/20 10:00:07;;;;;;;10.77;7.57;;;16.20;99.90;;;;;;5042078;28;20029;-56
2021/10/20 10:02:33;;;;;;;9.25;7.75;;;16.20;99.90;;;;;;5051741;28;20025;-52
2021/10/20 10:04:59;;;;;;;10.68;8.05;;;16.20;99.90;;;;;;5049659;28;20021;-55
2021/10/20 10:07:25;;;;;;;14.38;8.50;;;16.20;99.90;;;;;;5049978;28;20032;-54
2021/10/20 10:09:50;;;;;;;9.73;7.82;;;16.30;99.90;;;;;;5038809;28;20029;-53
2021/10/20 10:12:21;;;;;;;11.38;8.10;;;16.40;99.90;;;;;;5040678;28;20484;-58
2021/10/20 10:14:59;;;;;;;10.63;7.85;;;16.50;99.90;;;;;;5046959;28;20461;-55
2021/10/20 10:17:27;;;;;;;8.88;7.10;;;16.60;99.90;;;;;;5044911;28;20540;-54
2021/10/20 10:20:04;;;;;;;12.75;7.53;;;16.70;99.90;;;;;;5049294;28;20040;-51
2021/10/20 10:22:30;;;;;;;11.00;7.53;;;16.70;99.90;;;;;;5043182;28;20359;-52
2021/10/20 10:25:02;;;;;;;12.75;6.75;;;16.80;99.90;;;;;;5034573;28;20037;-53
2021/10/20 10:27:29;;;;;;;8.70;7.65;;;16.80;99.90;;;;;;5048319;28;20070;-54
2021/10/20 10:30:21;;;;;;;7.47;6.53;;;16.80;99.90;;;;;;5048343;28;20060;-53
2021/10/20 10:32:47;;;;;;;9.35;7.32;;;16.80;99.90;;;;;;5039860;28;20029;-54
2021/10/20 10:35:13;;;;;;;10.18;7.07;;;16.70;99.90;;;;;;5049405;28;20039;-53
2021/10/20 10:37:38;;;;;;;9.93;7.22;;;16.60;99.90;;;;;;5040291;28;20108;-57
2021/10/20 10:40:22;;;;;;;8.18;6.63;;;16.50;99.90;;;;;;5046613;28;20029;-52
2021/10/20 10:42:49;;;;;;;9.05;6.95;;;16.50;99.90;;;;;;5045305;28;20067;-52
2021/10/20 10:45:24;;;;;;;8.60;7.03;;;16.50;99.90;;;;;;5047802;28;20074;-53
2021/10/20 10:48:07;;;;;;;10.13;6.15;;;16.40;99.90;;;;;;5048681;28;20086;-54
2021/10/20 10:50:49;;;;;;;9.18;7.40;;;16.40;99.90;;;;;;5047536;28;20040;-52
2021/10/20 10:53:32;;;;;;;9.68;6.95;;;16.30;99.90;;;;;;5049152;28;20024;-49
2021/10/20 10:56:12;;;;;;;8.23;7.10;;;16.30;99.90;;;;;;5048067;28;20170;-52
2021/10/20 10:59:06;;;;;;;10.68;6.57;;;16.20;99.90;;;;;;5053349;28;20033;-51
2021/10/20 11:01:40;;;;;;;8.35;6.20;;;16.20;99.90;;;;;;5054027;28;20551;-55
2021/10/20 11:04:26;;;;;;;9.40;6.72;;;16.10;99.90;;;;;;5052951;28;20029;-56
2021/10/20 11:06:55;;;;;;;9.05;6.90;;;16.10;99.90;;;;;;5057477;28;20530;-52
2021/10/20 11:09:26;;;;;;;7.85;6.80;;;16.10;99.90;;;;;;5031417;28;20412;-57
2021/10/20 11:11:55;;;;;;;7.68;6.47;;;16.10;99.90;;;;;;5028168;28;20032;-55
2021/10/20 11:14:25;;;;;;;8.80;6.35;;;16.10;99.90;;;;;;5044341;28;20182;-55
2021/10/20 11:16:57;;;;;;;7.88;6.57;;;16.10;99.90;;;;;;5046670;28;20029;-51
2021/10/20 11:19:23;;;;;;;8.82;5.80;;;16.10;99.90;;;;;;5047611;28;20032;-50
2021/10/20 11:21:50;;;;;;;8.00;6.60;;;16.10;99.90;;;;;;5047232;28;20029;-55
2021/10/20 11:24:15;;;;;;;14.13;6.57;;;16.20;99.90;;;;;;5048325;28;20506;-53
2021/10/20 11:27:05;;;;;;;9.63;6.22;;;16.20;99.90;;;;;;5030298;28;20033;-51
2021/10/20 11:29:46;;;;;;;8.32;6.25;;;16.30;99.90;;;;;;5028363;28;20029;-56
2021/10/20 11:32:13;;;;;;;9.05;6.18;;;16.30;99.90;;;;;;5046053;28;20507;-54
2021/10/20 11:34:39;;;;;;;8.20;6.65;;;16.40;99.90;;;;;;5036793;28;20060;-50
2021/10/20 11:37:09;;;;;;;6.72;6.03;;;16.40;99.90;;;;;;5028374;28;20508;-57
2021/10/20 11:39:35;;;;;;;7.75;6.60;;;16.30;99.90;;;;;;5036265;28;20536;-55
2021/10/20 11:42:03;;;;;;;6.38;5.70;;;16.40;99.90;;;;;;5045897;28;20108;-56
2021/10/20 11:44:34;;;;;;;7.63;5.47;;;16.40;99.90;;;;;;5045671;28;20687;-55
2021/10/20 11:47:03;;;;;;;7.40;5.95;;;16.40;99.90;;;;;;5047382;28;20382;-54
2021/10/20 11:49:29;;;;;;;11.32;5.88;;;16.40;99.90;;;;;;5039491;28;20571;-52
2021/10/20 11:51:56;;;;;;;8.70;6.45;;;16.30;99.90;;;;;;5041369;28;20029;-53
2021/10/20 11:54:28;;;;;;;6.80;5.95;;;16.40;99.90;;;;;;5028154;28;20029;-53
2021/10/20 11:56:56;;;;;;;9.07;6.65;;;16.30;99.90;;;;;;5027926;28;20025;-53
2021/10/20 11:59:29;;;;;;;7.00;5.68;;;16.30;99.90;;;;;;5041443;28;20112;-53
2021/10/20 12:01:55;;;;;;;8.75;5.28;;;16.30;99.90;;;;;;5047665;28;20072;-59
2021/10/20 12:04:23;;;;;;;8.32;5.88;;;16.20;99.90;;;;;;5046895;28;20056;-52
2021/10/20 12:06:51;;;;;;;8.48;6.10;;;16.30;99.90;;;;;;5049371;28;20029;-56
2021/10/20 12:09:17;;;;;;;8.77;6.20;;;16.30;99.90;;;;;;5051377;28;20025;-54
2021/10/20 12:11:44;;;;;;;6.93;5.65;;;16.40;99.90;;;;;;5051143;28;20625;-55
2021/10/20 12:14:14;;;;;;;7.82;6.22;;;16.40;99.90;;;;;;5051758;28;20035;-56
2021/10/20 12:16:42;;;;;;;8.40;6.78;;;16.40;99.90;;;;;;5052149;28;20021;-52
2021/10/20 12:19:12;;;;;;;6.78;5.65;;;16.40;99.90;;;;;;5051999;28;20107;-53
2021/10/20 12:21:43;;;;;;;8.55;5.97;;;16.40;99.90;;;;;;5052211;28;20532;-56
2021/10/20 12:24:09;;;;;;;7.45;6.30;;;16.50;99.90;;;;;;5051338;28;20640;-52
2021/10/20 12:26:37;;;;;;;6.80;5.97;;;16.50;99.90;;;;;;5050891;28;20025;-53
2021/10/20 12:29:05;;;;;;;7.03;5.38;;;16.50;99.90;;;;;;5078491;22;20052;-51
2021/10/20 12:31:31;;;;;;;8.13;6.28;;;16.50;99.90;;;;;;5069339;28;20488;-52
2021/10/20 12:33:58;;;;;;;7.95;7.15;;;16.40;99.90;;;;;;5081806;28;20055;-52
2021/10/20 12:36:29;;;;;;;8.52;6.65;;;16.40;99.90;;;;;;5071895;28;20025;-51
2021/10/20 12:38:56;;;;;;;8.13;6.75;;;16.40;99.90;;;;;;5053991;28;20039;-53
2021/10/20 12:41:26;;;;;;;9.52;6.75;;;16.40;99.90;;;;;;5070587;28;20675;-51